createdAt,value
2017-08-01T00:00:20.003Z,72.77
2017-08-01T00:01:21.242Z,73.11
2017-08-01T00:02:22.491Z,73.25
2017-08-01T00:03:23.739Z,73.02
2017-08-01T00:04:24.969Z,72.83
2017-08-01T00:05:26.241Z,72.73
2017-08-01T00:06:27.495Z,73.11
2017-08-01T00:07:28.733Z,72.73
2017-08-01T00:08:29.967Z,72.83
2017-08-01T00:09:31.226Z,72.96
2017-08-01T00:10:32.513Z,73.11
2017-08-01T00:11:33.974Z,73.11
2017-08-01T00:12:35.245Z,73.41
2017-08-01T00:13:36.478Z,73.11
2017-08-01T00:14:37.708Z,72.92
2017-08-01T00:15:38.969Z,72.25
2017-08-01T00:16:40.251Z,72.64
2017-08-01T00:17:41.497Z,72.44
2017-08-01T00:18:42.787Z,72.92
2017-08-01T00:19:44.085Z,72.92
2017-08-01T00:20:45.327Z,72.83
2017-08-01T00:21:46.577Z,73.02
2017-08-01T00:22:47.817Z,72.83
2017-08-01T00:23:49.091Z,72.54
2017-08-01T00:24:50.343Z,73.41
2017-08-01T00:25:51.582Z,72.73
2017-08-01T00:26:52.819Z,72.83
2017-08-01T00:27:54.057Z,72.73
2017-08-01T00:28:55.300Z,72.73
2017-08-01T00:29:56.542Z,72.54
2017-08-01T00:30:57.834Z,72.34
2017-08-01T00:31:59.045Z,72.83
2017-08-01T00:33:00.362Z,72.34
2017-08-01T00:34:01.602Z,72.64
2017-08-01T00:35:02.853Z,72.06
2017-08-01T00:36:04.194Z,71.96
2017-08-01T00:37:05.580Z,71.87
2017-08-01T00:38:06.812Z,71.1
2017-08-01T00:39:08.067Z,71.39
2017-08-01T00:40:09.309Z,71.77
2017-08-01T00:41:10.544Z,71.33
2017-08-01T00:42:11.796Z,70.9
2017-08-01T00:43:13.032Z,70.37
2017-08-01T00:44:14.296Z,70.07
2017-08-01T00:45:15.544Z,70.17
2017-08-01T00:46:16.785Z,70.07
2017-08-01T00:47:18.034Z,70.17
2017-08-01T00:48:19.259Z,69.69
2017-08-01T00:49:20.528Z,69.89
2017-08-01T00:50:21.764Z,70.07
2017-08-01T00:51:23.006Z,69.5
2017-08-01T00:52:24.248Z,69.69
2017-08-01T00:53:25.488Z,69.5
2017-08-01T00:54:26.735Z,69.6
2017-08-01T00:55:27.984Z,69.69
2017-08-01T00:56:29.221Z,69.69
2017-08-01T00:57:30.474Z,69.6
2017-08-01T00:58:31.733Z,69.31
2017-08-01T00:59:32.969Z,69.31
2017-08-01T01:00:34.214Z,68.92
2017-08-01T01:01:35.464Z,69.31
2017-08-01T01:02:36.714Z,69.12
2017-08-01T01:03:38.030Z,69.69
2017-08-01T01:04:39.336Z,69.79
2017-08-01T01:05:40.573Z,69.31
2017-08-01T01:06:41.812Z,69.5
2017-08-01T01:07:43.052Z,69.69
2017-08-01T01:08:44.323Z,69.21
2017-08-01T01:09:45.594Z,68.92
2017-08-01T01:10:46.818Z,69.5
2017-08-01T01:11:48.083Z,70.07
2017-08-01T01:12:49.330Z,69.98
2017-08-01T01:13:50.583Z,69.98
2017-08-01T01:14:51.816Z,69.21
2017-08-01T01:15:53.065Z,69.12
2017-08-01T01:16:54.423Z,69.89
2017-08-01T01:17:55.761Z,69.69
2017-08-01T01:18:57.002Z,70.07
2017-08-01T01:19:58.243Z,69.79
2017-08-01T01:20:59.482Z,69.98
2017-08-01T01:22:00.728Z,69.6
2017-08-01T01:23:02.059Z,69.6
2017-08-01T01:24:03.283Z,70.17
2017-08-01T01:25:04.527Z,70.07
2017-08-01T01:26:05.794Z,70.17
2017-08-01T01:27:07.014Z,69.98
2017-08-01T01:28:08.252Z,70.07
2017-08-01T01:29:09.673Z,70.17
2017-08-01T01:30:10.932Z,69.79
2017-08-01T01:31:12.158Z,69.98
2017-08-01T01:32:13.387Z,69.79
2017-08-01T01:33:14.638Z,69.02
2017-08-01T01:34:15.941Z,69.02
2017-08-01T01:35:17.171Z,69.6
2017-08-01T01:36:18.458Z,69.6
2017-08-01T01:37:19.707Z,69.98
2017-08-01T01:38:20.946Z,69.89
2017-08-01T01:39:22.243Z,70.07
2017-08-01T01:40:23.483Z,69.89
2017-08-01T01:41:24.843Z,70.17
2017-08-01T01:42:26.159Z,70.27
2017-08-01T01:43:27.400Z,69.98
2017-08-01T01:44:28.642Z,69.89
2017-08-01T01:45:29.877Z,69.63
2017-08-01T01:46:31.117Z,69.79
2017-08-01T01:47:32.361Z,70.17
2017-08-01T01:48:33.608Z,69.4
2017-08-01T01:49:34.847Z,69.89
2017-08-01T01:50:36.082Z,69.98
2017-08-01T01:51:37.337Z,69.79
2017-08-01T01:52:38.540Z,69.89
2017-08-01T01:53:39.970Z,69.5
2017-08-01T01:54:41.192Z,69.98
2017-08-01T01:55:42.447Z,69.98
2017-08-01T01:56:43.708Z,69.53
2017-08-01T01:57:44.943Z,69.34
2017-08-01T01:58:46.198Z,69.4
2017-08-01T01:59:47.435Z,69.24
2017-08-01T02:00:48.773Z,68.92
2017-08-01T02:01:50.023Z,69.21
2017-08-01T02:02:51.266Z,69.5
2017-08-01T02:03:52.505Z,69.79
2017-08-01T02:04:53.740Z,69.98
2017-08-01T02:05:55.045Z,69.69
2017-08-01T02:06:56.288Z,69.5
2017-08-01T02:07:57.529Z,69.69
2017-08-01T02:08:58.766Z,70.17
2017-08-01T02:10:00.015Z,69.89
2017-08-01T02:11:01.264Z,70.56
2017-08-01T02:12:02.555Z,70.17
2017-08-01T02:13:03.900Z,69.89
2017-08-01T02:14:05.142Z,70.27
2017-08-01T02:15:06.385Z,70.27
2017-08-01T02:16:07.648Z,70.27
2017-08-01T02:17:08.893Z,70.56
2017-08-01T02:18:10.142Z,70.46
2017-08-01T02:19:11.379Z,70.37
2017-08-01T02:20:12.654Z,70.94
2017-08-01T02:21:13.935Z,70.62
2017-08-01T02:22:15.175Z,70.81
2017-08-01T02:23:16.523Z,70.43
2017-08-01T02:24:17.854Z,70.33
2017-08-01T02:25:19.091Z,70.52
2017-08-01T02:26:20.470Z,70.81
2017-08-01T02:27:21.709Z,70.72
2017-08-01T02:28:22.948Z,71.39
2017-08-01T02:29:24.307Z,71.39
2017-08-01T02:30:25.554Z,72.06
2017-08-01T02:31:26.835Z,72.22
2017-08-01T02:32:28.078Z,72.89
2017-08-01T02:33:29.314Z,72.89
2017-08-01T02:34:30.548Z,72.99
2017-08-01T02:35:31.782Z,72.79
2017-08-01T02:36:33.017Z,74.13
2017-08-01T02:37:34.262Z,74.52
2017-08-01T02:38:35.600Z,74.52
2017-08-01T02:39:36.852Z,75.2
2017-08-01T02:40:38.078Z,75.2
2017-08-01T02:41:39.330Z,75.1
2017-08-01T02:42:40.563Z,75
2017-08-01T02:43:41.967Z,74.9
2017-08-01T02:44:43.204Z,75.29
2017-08-01T02:45:44.471Z,75.29
2017-08-01T02:46:45.710Z,75.57
2017-08-01T02:47:46.950Z,75.48
2017-08-01T02:48:48.194Z,75.73
2017-08-01T02:49:49.431Z,76.02
2017-08-01T02:50:50.698Z,76.12
2017-08-01T02:51:51.997Z,76.69
2017-08-01T02:52:53.242Z,76.98
2017-08-01T02:53:54.474Z,77.26
2017-08-01T02:54:55.717Z,77.17
2017-08-01T02:55:56.957Z,77.26
2017-08-01T02:56:58.235Z,77.94
2017-08-01T02:57:59.495Z,77.94
2017-08-01T02:59:00.723Z,78.23
2017-08-01T03:00:01.987Z,78.7
2017-08-01T03:01:03.230Z,78.7
2017-08-01T03:02:04.476Z,78.8
2017-08-01T03:03:05.727Z,78.61
2017-08-01T03:04:06.966Z,78.9
2017-08-01T03:05:08.241Z,78.8
2017-08-01T03:06:09.484Z,78.7
2017-08-01T03:07:10.722Z,79.19
2017-08-01T03:08:11.982Z,78.96
2017-08-01T03:09:13.214Z,79.38
2017-08-01T03:10:14.458Z,79.57
2017-08-01T03:11:15.705Z,79.72
2017-08-01T03:12:16.950Z,79.63
2017-08-01T03:13:18.187Z,79.82
2017-08-01T03:14:19.427Z,80.01
2017-08-01T03:15:20.687Z,80.78
2017-08-01T03:16:21.944Z,81.26
2017-08-01T03:17:23.177Z,81.26
2017-08-01T03:18:24.424Z,81.16
2017-08-01T03:19:25.663Z,81.07
2017-08-01T03:20:26.904Z,81.64
2017-08-01T03:21:28.166Z,82.12
2017-08-01T03:22:29.384Z,81.35
2017-08-01T03:23:30.628Z,82.12
2017-08-01T03:24:31.880Z,81.84
2017-08-01T03:25:33.134Z,82.21
2017-08-01T03:26:34.363Z,82.6
2017-08-01T03:27:35.605Z,83.08
2017-08-01T03:28:36.896Z,83.08
2017-08-01T03:29:38.184Z,82.98
2017-08-01T03:30:39.428Z,83.47
2017-08-01T03:31:40.662Z,83.27
2017-08-01T03:32:41.886Z,83.27
2017-08-01T03:33:43.122Z,83.08
2017-08-01T03:34:44.409Z,83.65
2017-08-01T03:35:45.632Z,83.85
2017-08-01T03:36:46.877Z,83.27
2017-08-01T03:37:48.114Z,83.85
2017-08-01T03:38:49.372Z,83.65
2017-08-01T03:39:50.593Z,83.85
2017-08-01T03:40:51.829Z,83.56
2017-08-01T03:41:53.082Z,83.27
2017-08-01T03:42:54.432Z,83.27
2017-08-01T03:43:55.690Z,83.37
2017-08-01T03:44:56.907Z,83.65
2017-08-01T03:45:58.148Z,83.47
2017-08-01T03:46:59.387Z,82.7
2017-08-01T03:48:00.623Z,82.7
2017-08-01T03:49:01.947Z,82.79
2017-08-01T03:50:03.080Z,82.79
2017-08-01T03:51:04.321Z,82.79
2017-08-01T03:52:05.577Z,82.51
2017-08-01T03:53:06.819Z,82.6
2017-08-01T03:54:08.044Z,82.51
2017-08-01T03:55:09.279Z,82.89
2017-08-01T03:56:10.607Z,82.21
2017-08-01T03:57:11.959Z,82.79
2017-08-01T03:58:13.246Z,82.89
2017-08-01T03:59:14.503Z,82.6
2017-08-01T04:00:15.727Z,82.31
2017-08-01T04:01:16.967Z,82.21
2017-08-01T04:02:18.228Z,82.12
2017-08-01T04:03:19.455Z,82.6
2017-08-01T04:04:20.691Z,82.21
2017-08-01T04:05:21.919Z,82.41
2017-08-01T04:06:23.160Z,82.89
2017-08-01T04:07:24.408Z,82.7
2017-08-01T04:08:25.648Z,82.79
2017-08-01T04:09:26.936Z,82.31
2017-08-01T04:10:28.213Z,82.41
2017-08-01T04:11:29.446Z,82.7
2017-08-01T04:12:30.695Z,82.21
2017-08-01T04:13:31.927Z,82.21
2017-08-01T04:14:33.167Z,82.41
2017-08-01T04:15:34.462Z,82.03
2017-08-01T04:16:35.706Z,82.07
2017-08-01T04:17:36.940Z,82.07
2017-08-01T04:18:38.177Z,82.21
2017-08-01T04:19:39.420Z,82.51
2017-08-01T04:20:40.663Z,82.41
2017-08-01T04:21:41.960Z,82.16
2017-08-01T04:22:43.174Z,82.54
2017-08-01T04:23:44.462Z,81.97
2017-08-01T04:24:45.720Z,82.12
2017-08-01T04:25:46.956Z,81.93
2017-08-01T04:26:48.193Z,81.64
2017-08-01T04:27:49.427Z,81.84
2017-08-01T04:28:50.666Z,82.31
2017-08-01T04:29:52.020Z,82.54
2017-08-01T04:30:53.274Z,82.35
2017-08-01T04:31:54.498Z,82.93
2017-08-01T04:32:55.734Z,82.93
2017-08-01T04:33:56.996Z,82.35
2017-08-01T04:34:58.245Z,81.97
2017-08-01T04:35:59.590Z,82.07
2017-08-01T04:37:00.841Z,81.4
2017-08-01T04:38:02.079Z,81.2
2017-08-01T04:39:03.334Z,80.96
2017-08-01T04:40:04.577Z,80.38
2017-08-01T04:41:05.903Z,80.66
2017-08-01T04:42:07.137Z,80.09
2017-08-01T04:43:08.436Z,80.19
2017-08-01T04:44:09.667Z,79.75
2017-08-01T04:45:10.917Z,79.65
2017-08-01T04:46:12.287Z,79.84
2017-08-01T04:47:13.736Z,79.27
2017-08-01T04:48:14.881Z,78.5
2017-08-01T04:49:16.105Z,77.96
2017-08-01T04:50:17.379Z,77.48
2017-08-01T04:51:18.680Z,77
2017-08-01T04:52:19.919Z,76.04
2017-08-01T04:53:21.160Z,75.4
2017-08-01T04:54:22.406Z,75.02
2017-08-01T04:55:23.818Z,75.4
2017-08-01T04:56:25.035Z,75.49
2017-08-01T04:57:26.354Z,75.21
2017-08-01T04:58:27.593Z,75.11
2017-08-01T04:59:28.940Z,74.34
2017-08-01T05:00:30.194Z,74.82
2017-08-01T05:01:31.483Z,74.05
2017-08-01T05:02:32.722Z,74.15
2017-08-01T05:03:33.940Z,74.54
2017-08-01T05:04:35.179Z,74.44
2017-08-01T05:05:36.478Z,74.54
2017-08-01T05:06:37.717Z,75.11
2017-08-01T05:07:38.986Z,75.79
2017-08-01T05:08:40.207Z,76.26
2017-08-01T05:09:41.444Z,76.17
2017-08-01T05:10:42.823Z,75.31
2017-08-01T05:11:44.074Z,75.73
2017-08-01T05:12:45.319Z,74.86
2017-08-01T05:13:46.549Z,74.09
2017-08-01T05:14:47.789Z,74.48
2017-08-01T05:15:49.022Z,72.88
2017-08-01T05:16:50.274Z,71.28
2017-08-01T05:17:51.508Z,70.38
2017-08-01T05:18:52.766Z,67.23
2017-08-01T05:19:54.063Z,65.63
2017-08-01T05:20:55.294Z,64.18
2017-08-01T05:21:56.533Z,62.66
2017-08-01T05:22:57.779Z,60.99
2017-08-01T05:23:59.021Z,60.24
2017-08-01T05:25:00.275Z,57.86
2017-08-01T05:26:01.619Z,57.88
2017-08-01T05:27:02.874Z,56.26
2017-08-01T05:28:04.117Z,54.28
2017-08-01T05:29:05.337Z,52.25
2017-08-01T05:30:06.605Z,52.47
2017-08-01T05:31:07.938Z,51.89
2017-08-01T05:32:09.180Z,51.59
2017-08-01T05:33:10.445Z,50.82
2017-08-01T05:34:11.676Z,50.04
2017-08-01T05:35:12.905Z,49.58
2017-08-01T05:36:14.163Z,49
2017-08-01T05:37:15.408Z,49.12
2017-08-01T05:38:16.749Z,48.15
2017-08-01T05:39:17.986Z,46.52
2017-08-01T05:40:19.231Z,47.47
2017-08-01T05:41:20.573Z,46.77
2017-08-01T05:42:21.793Z,47.35
2017-08-01T05:43:23.137Z,47.64
2017-08-01T05:44:24.473Z,47.52
2017-08-01T05:45:25.722Z,48.2
2017-08-01T05:46:26.960Z,48.85
2017-08-01T05:47:28.220Z,49.82
2017-08-01T05:48:29.457Z,50.31
2017-08-01T05:49:30.806Z,50.99
2017-08-01T05:50:32.124Z,50.6
2017-08-01T05:51:33.351Z,50.79
2017-08-01T05:52:34.595Z,49.56
2017-08-01T05:53:35.833Z,49.37
2017-08-01T05:54:37.073Z,49
2017-08-01T05:55:38.391Z,47.66
2017-08-01T05:56:39.682Z,47.96
2017-08-01T05:57:40.930Z,46.33
2017-08-01T05:58:42.162Z,46.04
2017-08-01T05:59:43.403Z,46.33
2017-08-01T06:00:44.748Z,45.67
2017-08-01T06:01:46.077Z,45.21
2017-08-01T06:02:47.372Z,44.21
2017-08-01T06:03:48.519Z,44.02
2017-08-01T06:04:49.754Z,44.62
2017-08-01T06:05:50.993Z,44.62
2017-08-01T06:06:52.336Z,43.67
2017-08-01T06:07:53.601Z,43.79
2017-08-01T06:08:54.851Z,43.11
2017-08-01T06:09:56.099Z,42.35
2017-08-01T06:10:57.342Z,40.13
2017-08-01T06:11:58.700Z,40.03
2017-08-01T06:12:59.946Z,39.94
2017-08-01T06:14:01.288Z,38.98
2017-08-01T06:15:02.541Z,38.24
2017-08-01T06:16:03.797Z,38.06
2017-08-01T06:17:05.048Z,36.82
2017-08-01T06:18:06.305Z,35.74
2017-08-01T06:19:07.562Z,36.72
2017-08-01T06:20:08.834Z,36.93
2017-08-01T06:21:10.243Z,35.3
2017-08-01T06:22:11.481Z,33.85
2017-08-01T06:23:12.749Z,33.25
2017-08-01T06:24:13.984Z,34.34
2017-08-01T06:25:15.214Z,32.78
2017-08-01T06:26:16.463Z,33.04
2017-08-01T06:27:17.756Z,34.39
2017-08-01T06:28:18.981Z,34
2017-08-01T06:29:20.232Z,34.58
2017-08-01T06:30:21.491Z,33.72
2017-08-01T06:31:22.760Z,32.86
2017-08-01T06:32:24.153Z,32.1
2017-08-01T06:33:25.391Z,31.45
2017-08-01T06:34:26.635Z,30.29
2017-08-01T06:35:27.880Z,29.43
2017-08-01T06:36:29.124Z,28.55
2017-08-01T06:37:30.377Z,27.91
2017-08-01T06:38:31.618Z,26.63
2017-08-01T06:39:32.977Z,26.74
2017-08-01T06:40:34.361Z,26.84
2017-08-01T06:41:35.625Z,26.65
2017-08-01T06:42:36.868Z,26.08
2017-08-01T06:43:38.211Z,25.02
2017-08-01T06:44:39.456Z,24.34
2017-08-01T06:45:40.693Z,24.91
2017-08-01T06:46:41.987Z,25.29
2017-08-01T06:47:43.236Z,25.57
2017-08-01T06:48:44.557Z,26.34
2017-08-01T06:49:45.803Z,27.2
2017-08-01T06:50:47.069Z,28.75
2017-08-01T06:51:48.351Z,29.41
2017-08-01T06:52:49.750Z,30.57
2017-08-01T06:53:50.989Z,32.7
2017-08-01T06:54:52.252Z,33.85
2017-08-01T06:55:53.507Z,33.65
2017-08-01T06:56:54.801Z,31.39
2017-08-01T06:57:56.069Z,31.28
2017-08-01T06:58:57.316Z,32.56
2017-08-01T06:59:58.592Z,32.26
2017-08-01T07:00:59.836Z,32.26
2017-08-01T07:02:01.093Z,32.75
2017-08-01T07:03:02.342Z,32.24
2017-08-01T07:04:03.702Z,32.71
2017-08-01T07:05:04.869Z,32.73
2017-08-01T07:06:06.107Z,32.75
2017-08-01T07:07:07.366Z,32.84
2017-08-01T07:08:08.617Z,33.45
2017-08-01T07:09:09.984Z,33.26
2017-08-01T07:10:11.224Z,31.52
2017-08-01T07:11:12.478Z,31.14
2017-08-01T07:12:13.724Z,31.34
2017-08-01T07:13:14.958Z,31.27
2017-08-01T07:14:16.272Z,30.21
2017-08-01T07:15:17.494Z,30.02
2017-08-01T07:16:18.835Z,29.55
2017-08-01T07:17:20.092Z,30.43
2017-08-01T07:18:21.334Z,29.27
2017-08-01T07:19:22.583Z,28.57
2017-08-01T07:20:23.833Z,28.57
2017-08-01T07:21:25.163Z,29.17
2017-08-01T07:22:26.416Z,28.09
2017-08-01T07:23:27.700Z,27.91
2017-08-01T07:24:28.950Z,27.62
2017-08-01T07:25:30.197Z,27.75
2017-08-01T07:26:31.438Z,27.06
2017-08-01T07:27:32.787Z,27.26
2017-08-01T07:28:34.034Z,26.48
2017-08-01T07:29:35.289Z,26.99
2017-08-01T07:30:36.534Z,26.31
2017-08-01T07:31:37.787Z,24.95
2017-08-01T07:32:39.027Z,25.35
2017-08-01T07:33:40.338Z,26.06
2017-08-01T07:34:41.572Z,24.39
2017-08-01T07:35:42.830Z,23.91
2017-08-01T07:36:44.071Z,24.29
2017-08-01T07:37:45.316Z,23.88
2017-08-01T07:38:46.680Z,24.17
2017-08-01T07:39:47.903Z,25.05
2017-08-01T07:40:49.164Z,25.15
2017-08-01T07:41:50.423Z,24.96
2017-08-01T07:42:51.724Z,25.55
2017-08-01T07:43:52.973Z,24.56
2017-08-01T07:44:54.221Z,24.46
2017-08-01T07:45:55.479Z,24.75
2017-08-01T07:46:56.736Z,24.95
2017-08-01T07:47:57.997Z,25.35
2017-08-01T07:48:59.247Z,24.75
2017-08-01T07:50:00.492Z,25.14
2017-08-01T07:51:01.743Z,25.52
2017-08-01T07:52:03.039Z,26.1
2017-08-01T07:53:04.333Z,26.58
2017-08-01T07:54:05.609Z,27.27
2017-08-01T07:55:07.049Z,27.75
2017-08-01T07:56:08.298Z,27.48
2017-08-01T07:57:09.543Z,25.73
2017-08-01T07:58:10.802Z,24.28
2017-08-01T07:59:12.061Z,23.51
2017-08-01T08:00:13.499Z,23.11
2017-08-01T08:01:14.749Z,23
2017-08-01T08:02:16.010Z,23.49
2017-08-01T08:03:17.241Z,24.27
2017-08-01T08:04:18.592Z,24.46
2017-08-01T08:05:19.843Z,23.97
2017-08-01T08:06:21.116Z,25.13
2017-08-01T08:07:22.353Z,26.3
2017-08-01T08:08:23.586Z,25.81
2017-08-01T08:09:24.861Z,25.7
2017-08-01T08:10:26.207Z,26.07
2017-08-01T08:11:27.461Z,26.95
2017-08-01T08:12:28.704Z,27.62
2017-08-01T08:13:29.942Z,27.92
2017-08-01T08:14:31.199Z,27.61
2017-08-01T08:15:32.480Z,27.4
2017-08-01T08:16:33.710Z,28.09
2017-08-01T08:17:35.029Z,29.16
2017-08-01T08:18:36.266Z,29.34
2017-08-01T08:19:37.529Z,30.3
2017-08-01T08:20:38.777Z,30.7
2017-08-01T08:21:40.026Z,31.67
2017-08-01T08:22:41.313Z,32.45
2017-08-01T08:23:42.565Z,32.23
2017-08-01T08:24:43.924Z,33.39
2017-08-01T08:25:45.165Z,34.67
2017-08-01T08:26:46.412Z,33.97
2017-08-01T08:27:47.651Z,33.85
2017-08-01T08:28:48.909Z,34.41
2017-08-01T08:29:50.187Z,35.56
2017-08-01T08:30:51.502Z,35.85
2017-08-01T08:31:52.691Z,35.95
2017-08-01T08:32:53.933Z,36.43
2017-08-01T08:33:55.182Z,37.01
2017-08-01T08:34:56.529Z,37.7
2017-08-01T08:35:57.874Z,38.57
2017-08-01T08:36:59.113Z,38.57
2017-08-01T08:38:00.369Z,39.16
2017-08-01T08:39:01.619Z,38.48
2017-08-01T08:40:02.917Z,38.38
2017-08-01T08:41:04.265Z,37.91
2017-08-01T08:42:05.514Z,37.32
2017-08-01T08:43:06.843Z,37.83
2017-08-01T08:44:08.148Z,35.97
2017-08-01T08:45:09.344Z,36.24
2017-08-01T08:46:10.682Z,37.02
2017-08-01T08:47:11.941Z,36.85
2017-08-01T08:48:13.188Z,36.28
2017-08-01T08:49:14.517Z,35.3
2017-08-01T08:50:15.770Z,35.3
2017-08-01T08:51:17.017Z,35.42
2017-08-01T08:52:18.259Z,35.52
2017-08-01T08:53:19.523Z,35.5
2017-08-01T08:54:20.844Z,34.81
2017-08-01T08:55:22.103Z,35.5
2017-08-01T08:56:23.344Z,34.91
2017-08-01T08:57:24.592Z,35.58
2017-08-01T08:58:25.856Z,36.15
2017-08-01T08:59:27.107Z,36.43
2017-08-01T09:00:28.457Z,36.63
2017-08-01T09:01:29.742Z,36.82
2017-08-01T09:02:30.978Z,36.72
2017-08-01T09:03:32.225Z,36.83
2017-08-01T09:04:33.473Z,36.15
2017-08-01T09:05:34.813Z,36.85
2017-08-01T09:06:36.075Z,36.75
2017-08-01T09:07:37.313Z,36.87
2017-08-01T09:08:38.617Z,35.69
2017-08-01T09:09:39.838Z,35.99
2017-08-01T09:10:41.090Z,34.93
2017-08-01T09:11:42.426Z,34.65
2017-08-01T09:12:43.778Z,33.67
2017-08-01T09:13:45.024Z,33.46
2017-08-01T09:14:46.277Z,34.03
2017-08-01T09:15:47.536Z,34.6
2017-08-01T09:16:48.914Z,35.48
2017-08-01T09:17:50.204Z,34.99
2017-08-01T09:18:51.451Z,34.89
2017-08-01T09:19:52.696Z,34.48
2017-08-01T09:20:53.945Z,36.72
2017-08-01T09:21:55.194Z,35.94
2017-08-01T09:22:56.567Z,36.02
2017-08-01T09:23:57.812Z,36.11
2017-08-01T09:24:59.065Z,37.19
2017-08-01T09:26:00.344Z,37.27
2017-08-01T09:27:01.604Z,38.42
2017-08-01T09:28:02.879Z,39.1
2017-08-01T09:29:04.110Z,39
2017-08-01T09:30:05.371Z,39.37
2017-08-01T09:31:06.618Z,39.86
2017-08-01T09:32:07.891Z,39.76
2017-08-01T09:33:09.126Z,39.28
2017-08-01T09:34:10.386Z,39.16
2017-08-01T09:35:11.631Z,39.28
2017-08-01T09:36:12.899Z,39.96
2017-08-01T09:37:14.134Z,42.28
2017-08-01T09:38:15.380Z,43.15
2017-08-01T09:39:16.842Z,42.57
2017-08-01T09:40:18.085Z,41.57
2017-08-01T09:41:19.330Z,41.57
2017-08-01T09:42:20.647Z,41.16
2017-08-01T09:43:21.906Z,41.55
2017-08-01T09:44:23.158Z,41.75
2017-08-01T09:45:24.419Z,42.7
2017-08-01T09:46:25.651Z,43.65
2017-08-01T09:47:26.882Z,44.79
2017-08-01T09:48:28.143Z,44.58
2017-08-01T09:49:29.368Z,45.45
2017-08-01T09:50:30.637Z,45.84
2017-08-01T09:51:31.884Z,46.23
2017-08-01T09:52:33.119Z,46.52
2017-08-01T09:53:34.364Z,45.65
2017-08-01T09:54:35.615Z,45.45
2017-08-01T09:55:36.888Z,45.67
2017-08-01T09:56:38.235Z,46.04
2017-08-01T09:57:39.485Z,45.26
2017-08-01T09:58:40.739Z,45.84
2017-08-01T09:59:42.017Z,46.04
2017-08-01T10:00:43.277Z,45.97
2017-08-01T10:01:44.667Z,45.77
2017-08-01T10:02:45.886Z,45.97
2017-08-01T10:03:47.133Z,45.57
2017-08-01T10:04:48.381Z,45.28
2017-08-01T10:05:49.623Z,45.6
2017-08-01T10:06:50.924Z,45.5
2017-08-01T10:07:52.205Z,45.72
2017-08-01T10:08:53.528Z,44.76
2017-08-01T10:09:54.762Z,44.18
2017-08-01T10:10:56.010Z,43.99
2017-08-01T10:11:57.255Z,44.01
2017-08-01T10:12:58.541Z,43.23
2017-08-01T10:13:59.791Z,43.13
2017-08-01T10:15:01.034Z,43.33
2017-08-01T10:16:02.287Z,43.04
2017-08-01T10:17:03.531Z,43.7
2017-08-01T10:18:04.859Z,43.79
2017-08-01T10:19:06.110Z,43.96
2017-08-01T10:20:07.359Z,44.84
2017-08-01T10:21:08.628Z,45.79
2017-08-01T10:22:09.887Z,45.89
2017-08-01T10:23:11.132Z,46.74
2017-08-01T10:24:12.375Z,46.84
2017-08-01T10:25:13.625Z,47.91
2017-08-01T10:26:14.889Z,47.81
2017-08-01T10:27:16.118Z,48.37
2017-08-01T10:28:17.436Z,47.78
2017-08-01T10:29:18.623Z,47.88
2017-08-01T10:30:19.871Z,47.78
2017-08-01T10:31:21.118Z,47.69
2017-08-01T10:32:22.448Z,48.49
2017-08-01T10:33:23.712Z,47.88
2017-08-01T10:34:24.946Z,47.91
2017-08-01T10:35:26.197Z,47.23
2017-08-01T10:36:27.445Z,47.64
2017-08-01T10:37:28.688Z,45.91
2017-08-01T10:38:29.936Z,44.26
2017-08-01T10:39:31.246Z,44.65
2017-08-01T10:40:32.484Z,43.33
2017-08-01T10:41:33.736Z,42.28
2017-08-01T10:42:34.980Z,40.09
2017-08-01T10:43:36.239Z,38.77
2017-08-01T10:44:37.490Z,37.4
2017-08-01T10:45:38.749Z,36.75
2017-08-01T10:46:40.000Z,35.79
2017-08-01T10:47:41.247Z,35.91
2017-08-01T10:48:42.494Z,35.34
2017-08-01T10:49:43.753Z,35.44
2017-08-01T10:50:45.052Z,35.06
2017-08-01T10:51:46.363Z,34.18
2017-08-01T10:52:47.600Z,34.57
2017-08-01T10:53:48.905Z,34.28
2017-08-01T10:54:50.160Z,34.31
2017-08-01T10:55:51.401Z,33.84
2017-08-01T10:56:52.654Z,33.54
2017-08-01T10:57:53.905Z,32.07
2017-08-01T10:58:55.147Z,32.25
2017-08-01T10:59:56.390Z,33.12
2017-08-01T11:00:57.640Z,34.08
2017-08-01T11:01:58.888Z,34.84
2017-08-01T11:03:00.136Z,34.24
2017-08-01T11:04:01.377Z,34.83
2017-08-01T11:05:02.746Z,34.64
2017-08-01T11:06:04.005Z,35.01
2017-08-01T11:07:05.233Z,35.69
2017-08-01T11:08:06.485Z,36.98
2017-08-01T11:09:07.732Z,35.52
2017-08-01T11:10:09.021Z,34.81
2017-08-01T11:11:10.271Z,36.18
2017-08-01T11:12:11.515Z,36.55
2017-08-01T11:13:12.781Z,36.07
2017-08-01T11:14:14.025Z,36.93
2017-08-01T11:15:15.286Z,36.36
2017-08-01T11:16:16.546Z,35.97
2017-08-01T11:17:17.793Z,36.83
2017-08-01T11:18:19.132Z,37.79
2017-08-01T11:19:20.391Z,38.18
2017-08-01T11:20:21.697Z,38.69
2017-08-01T11:21:22.949Z,37.02
2017-08-01T11:22:24.197Z,36.24
2017-08-01T11:23:25.465Z,36.15
2017-08-01T11:24:26.756Z,35.85
2017-08-01T11:25:27.997Z,36.26
2017-08-01T11:26:29.246Z,35.6
2017-08-01T11:27:30.514Z,35.69
2017-08-01T11:28:31.768Z,34.64
2017-08-01T11:29:33.062Z,35.42
2017-08-01T11:30:34.310Z,35.01
2017-08-01T11:31:35.687Z,35.97
2017-08-01T11:32:36.824Z,35.48
2017-08-01T11:33:38.073Z,35.27
2017-08-01T11:34:39.316Z,35.56
2017-08-01T11:35:40.575Z,35.46
2017-08-01T11:36:41.836Z,35.84
2017-08-01T11:37:43.153Z,36.02
2017-08-01T11:38:44.495Z,36.11
2017-08-01T11:39:45.719Z,36.9
2017-08-01T11:40:46.970Z,36.82
2017-08-01T11:41:48.340Z,36.82
2017-08-01T11:42:49.572Z,37.01
2017-08-01T11:43:50.830Z,37.38
2017-08-01T11:44:52.101Z,37.77
2017-08-01T11:45:53.344Z,37.19
2017-08-01T11:46:54.626Z,37.65
2017-08-01T11:47:55.863Z,38.42
2017-08-01T11:48:57.126Z,39.49
2017-08-01T11:49:58.383Z,39.47
2017-08-01T11:50:59.632Z,40.45
2017-08-01T11:52:00.888Z,41.11
2017-08-01T11:53:02.123Z,41.2
2017-08-01T11:54:03.366Z,41.5
2017-08-01T11:55:04.628Z,42.25
2017-08-01T11:56:05.955Z,42.45
2017-08-01T11:57:07.148Z,43.33
2017-08-01T11:58:08.388Z,43.62
2017-08-01T11:59:09.640Z,44.49
2017-08-01T12:00:10.945Z,44.09
2017-08-01T12:01:12.227Z,44.09
2017-08-01T12:02:13.464Z,43.5
2017-08-01T12:03:14.731Z,43.48
2017-08-01T12:04:15.980Z,43.38
2017-08-01T12:05:17.227Z,43.85
2017-08-01T12:06:18.537Z,44.26
2017-08-01T12:07:19.780Z,44.82
2017-08-01T12:08:21.034Z,45.4
2017-08-01T12:09:22.295Z,45.48
2017-08-01T12:10:23.675Z,46.64
2017-08-01T12:11:24.901Z,49.15
2017-08-01T12:12:26.152Z,49.34
2017-08-01T12:13:27.509Z,50.41
2017-08-01T12:14:28.750Z,50.6
2017-08-01T12:15:30.011Z,50.51
2017-08-01T12:16:31.253Z,51.18
2017-08-01T12:17:32.505Z,53.52
2017-08-01T12:18:33.746Z,54.58
2017-08-01T12:19:35.005Z,55.36
2017-08-01T12:20:36.305Z,55.36
2017-08-01T12:21:37.559Z,55.36
2017-08-01T12:22:38.810Z,56.07
2017-08-01T12:23:40.059Z,54.42
2017-08-01T12:24:41.309Z,54.13
2017-08-01T12:25:42.602Z,53.54
2017-08-01T12:26:43.836Z,53.57
2017-08-01T12:27:45.136Z,52.31
2017-08-01T12:28:46.404Z,52.59
2017-08-01T12:29:47.689Z,53.47
2017-08-01T12:30:48.961Z,51.65
2017-08-01T12:31:50.394Z,51.84
2017-08-01T12:32:51.536Z,52.14
2017-08-01T12:33:52.851Z,51.84
2017-08-01T12:34:54.103Z,52.16
2017-08-01T12:35:55.347Z,50.51
2017-08-01T12:36:56.601Z,50.53
2017-08-01T12:37:57.846Z,49.17
2017-08-01T12:38:59.153Z,48.32
2017-08-01T12:40:00.453Z,46.95
2017-08-01T12:41:01.697Z,45.37
2017-08-01T12:42:02.966Z,46.83
2017-08-01T12:43:04.191Z,46.25
2017-08-01T12:44:05.447Z,46.25
2017-08-01T12:45:06.783Z,46.25
2017-08-01T12:46:08.028Z,46.44
2017-08-01T12:47:09.279Z,45.84
2017-08-01T12:48:10.518Z,45.76
2017-08-01T12:49:11.767Z,46.23
2017-08-01T12:50:13.012Z,47.17
2017-08-01T12:51:14.382Z,46.88
2017-08-01T12:52:15.651Z,47.44
2017-08-01T12:53:16.931Z,47.93
2017-08-01T12:54:18.164Z,48.13
2017-08-01T12:55:19.417Z,48.97
2017-08-01T12:56:20.714Z,49.56
2017-08-01T12:57:21.992Z,50.73
2017-08-01T12:58:23.230Z,50.63
2017-08-01T12:59:24.506Z,50.89
2017-08-01T13:00:25.775Z,51.77
2017-08-01T13:01:27.023Z,52.25
2017-08-01T13:02:28.272Z,51.48
2017-08-01T13:03:29.577Z,52.35
2017-08-01T13:04:30.924Z,52.23
2017-08-01T13:05:32.168Z,52.72
2017-08-01T13:06:33.416Z,52.91
2017-08-01T13:07:34.666Z,52.11
2017-08-01T13:08:35.909Z,52.78
2017-08-01T13:09:37.156Z,52.88
2017-08-01T13:10:38.523Z,53.63
2017-08-01T13:11:39.795Z,54.6